Dades meteomassalio
Diari Summary for Setembre 21, 2017 Units:  English    Metric   Both
« Previous Day
Next Day »
Diari Semanal Mensual Anual Personalitzat
  Maxima: Minima: Mijana:
Temperatura: TemperatureC °F 5.0 °F 15.3 °F
Rosada: DewpointC °F -1.5 °F 8.6 °F
Humitat: Humidity % 43 % 66 %
Velocitat del vent: WindSpeedKMH mph 0.0 mph 4.1 mph
Racha vent: WindSpeedGustKMH mph - -
Vent:- - SSE
Pressio: PressurehPa in 1016.8 in -
Pluja: 0.0 in    
Historical Graphs
 
 
Tabular Data for Setembre 21, 2017
Time Temperature Dew Point Pressure Wind Wind Speed Wind Gust Humidity Rainfall Rate (Hourly) solar Conditions
TemperatureC °F DewpointC °F PressurehPa in Calm     Humidity % HourlyPrecipMM in SolarRadiationWatts/m^2 W/m2 Conditions
00:02 8.3 °F -1.5 °F 1020.5 in Calm     50 % 0.0 in 0.0 W/m2 CLR
00:07 8.9 °F -1.0 °F 1020.5 in Calm     50 % 0.0 in 0.0 W/m2 CLR
00:12 9.4 °F -0.7 °F 1020.5 in Calm     49 % 0.0 in 0.0 W/m2 CLR
00:17 9.4 °F -0.2 °F 1020.5 in Calm     51 % 0.0 in 0.0 W/m2 CLR
00:22 9.4 °F -0.2 °F 1020.5 in Calm     51 % 0.0 in 0.0 W/m2 CLR
00:27 8.9 °F -0.4 °F 1020.5 in Calm     52 % 0.0 in 0.0 W/m2 CLR
00:32 8.9 °F -1.0 °F 1020.5 in Calm     50 % 0.0 in 0.0 W/m2 CLR
00:37 8.9 °F -1.0 °F 1020.5 in Calm     50 % 0.0 in 0.0 W/m2 CLR
00:42 8.9 °F -1.0 °F 1020.5 in Calm     50 % 0.0 in 0.0 W/m2 CLR
00:47 8.3 °F -1.2 °F 1020.5 in Calm     51 % 0.0 in 0.0 W/m2 CLR
00:52 8.3 °F -0.9 °F 1020.5 in Calm     52 % 0.0 in 0.0 W/m2 CLR
00:57 7.8 °F -1.2 °F 1020.5 in Calm     53 % 0.0 in 0.0 W/m2 CLR
01:02 7.8 °F -0.9 °F 1020.5 in Calm     54 % 0.0 in 0.0 W/m2 CLR
01:07 7.2 °F -1.2 °F 1020.5 in Calm     55 % 0.0 in 0.0 W/m2 CLR
01:12 7.2 °F -1.2 °F 1020.5 in Calm     55 % 0.0 in 0.0 W/m2 CLR
01:17 7.2 °F -1.0 °F 1020.5 in Calm     56 % 0.0 in 0.0 W/m2 CLR
01:22 7.2 °F -1.2 °F 1020.5 in Calm     55 % 0.0 in 0.0 W/m2 CLR
01:27 7.2 °F -1.0 °F 1020.5 in Calm     56 % 0.0 in 0.0 W/m2 CLR
01:32 7.2 °F -1.0 °F 1020.5 in Calm     56 % 0.0 in 0.0 W/m2 CLR
01:37 7.2 °F -0.7 °F 1020.5 in Calm     57 % 0.0 in 0.0 W/m2 CLR
01:42 7.2 °F -0.5 °F 1020.5 in Calm     58 % 0.0 in 0.0 W/m2 CLR
01:47 7.2 °F -0.3 °F 1020.5 in Calm     59 % 0.0 in 0.0 W/m2 CLR
01:52 7.2 °F -0.3 °F 1020.5 in Calm     59 % 0.0 in 0.0 W/m2 CLR
01:57 6.7 °F -0.8 °F 1020.5 in Calm     59 % 0.0 in 0.0 W/m2 CLR
02:02 6.7 °F -0.6 °F 1020.5 in Calm     60 % 0.0 in 0.0 W/m2 CLR
02:07 6.7 °F -0.3 °F 1020.5 in Calm     61 % 0.0 in 0.0 W/m2 CLR
02:13 6.7 °F -0.3 °F 1020.5 in Calm     61 % 0.0 in 0.0 W/m2 CLR
02:17 6.7 °F -0.3 °F 1020.5 in Calm     61 % 0.0 in 0.0 W/m2 CLR
02:22 6.7 °F -0.1 °F 1020.5 in Calm     62 % 0.0 in 0.0 W/m2 CLR
02:28 6.7 °F 0.1 °F 1020.5 in Calm     63 % 0.0 in 0.0 W/m2 CLR
02:33 6.7 °F 0.6 °F 1020.5 in Calm     65 % 0.0 in 0.0 W/m2 CLR
02:38 6.7 °F 0.8 °F 1020.5 in Calm     66 % 0.0 in 0.0 W/m2 CLR
02:43 6.7 °F 0.9 °F 1020.5 in Calm     67 % 0.0 in 0.0 W/m2 CLR
02:48 6.7 °F 0.6 °F 1020.5 in Calm     65 % 0.0 in 0.0 W/m2 CLR
02:53 6.1 °F 0.4 °F 1020.5 in Calm     67 % 0.0 in 0.0 W/m2 CLR
02:58 6.1 °F 0.4 °F 1020.5 in Calm     67 % 0.0 in 0.0 W/m2 CLR
03:03 6.1 °F 0.4 °F 1020.5 in Calm     67 % 0.0 in 0.0 W/m2 CLR
03:08 6.1 °F 0.7 °F 1020.5 in Calm     68 % 0.0 in 0.0 W/m2 CLR
03:13 6.1 °F 1.1 °F 1020.5 in Calm     70 % 0.0 in 0.0 W/m2 CLR
03:18 6.1 °F 1.6 °F 1020.5 in Calm     73 % 0.0 in 0.0 W/m2 CLR
03:23 6.1 °F 1.8 °F 1020.5 in Calm     74 % 0.0 in 0.0 W/m2 CLR
03:28 5.6 °F 1.1 °F 1020.2 in Calm     73 % 0.0 in 0.0 W/m2 CLR
03:33 5.6 °F 1.1 °F 1020.2 in Calm     73 % 0.0 in 0.0 W/m2 CLR
03:38 5.6 °F 1.4 °F 1020.2 in Calm     75 % 0.0 in 0.0 W/m2 CLR
03:43 5.6 °F 1.3 °F 1020.2 in Calm     74 % 0.0 in 0.0 W/m2 CLR
03:48 5.6 °F 2.0 °F 1020.2 in Calm     78 % 0.0 in 0.0 W/m2 CLR
03:53 5.6 °F 2.2 °F 1020.2 in Calm     79 % 0.0 in 0.0 W/m2 CLR
03:58 5.6 °F 1.7 °F 1020.2 in Calm     76 % 0.0 in 0.0 W/m2 CLR
04:03 5.6 °F 1.7 °F 1020.2 in Calm     76 % 0.0 in 0.0 W/m2 CLR
04:08 5.6 °F 1.8 °F 1020.2 in Calm     77 % 0.0 in 0.0 W/m2 CLR
04:13 5.6 °F 1.8 °F 1020.2 in Calm     77 % 0.0 in 0.0 W/m2 CLR
04:18 5.6 °F 2.0 °F 1020.2 in Calm     78 % 0.0 in 0.0 W/m2 CLR
04:23 5.6 °F 2.0 °F 1020.2 in Calm     78 % 0.0 in 0.0 W/m2 CLR
04:28 5.6 °F 2.4 °F 1020.2 in Calm     80 % 0.0 in 0.0 W/m2 CLR
04:33 5.6 °F 2.6 °F 1020.2 in Calm     81 % 0.0 in 0.0 W/m2 CLR
04:38 5.6 °F 2.6 °F 1020.2 in Calm     81 % 0.0 in 0.0 W/m2 CLR
04:43 5.6 °F 2.7 °F 1020.2 in Calm     82 % 0.0 in 0.0 W/m2 CLR
04:48 5.6 °F 2.9 °F 1020.2 in Calm     83 % 0.0 in 0.0 W/m2 CLR
04:53 5.6 °F 2.7 °F 1020.2 in Calm     82 % 0.0 in 0.0 W/m2 CLR
04:58 5.6 °F 2.6 °F 1019.9 in Calm     81 % 0.0 in 0.0 W/m2 CLR
05:03 5.6 °F 2.6 °F 1019.9 in Calm     81 % 0.0 in 0.0 W/m2 CLR
05:08 5.6 °F 2.9 °F 1019.9 in Calm     83 % 0.0 in 0.0 W/m2 CLR
05:14 5.6 °F 2.7 °F 1019.9 in Calm     82 % 0.0 in 0.0 W/m2 CLR
05:19 5.6 °F 3.1 °F 1020.2 in Calm     84 % 0.0 in 0.0 W/m2 CLR
05:21 5.6 °F 3.1 °F 1020.2 in Calm     84 % 0.0 in 0.0 W/m2 CLR
05:25 5.6 °F 2.9 °F 1019.9 in Calm     83 % 0.0 in 0.0 W/m2 CLR
05:27 5.6 °F 3.1 °F 1020.2 in Calm     84 % 0.0 in 0.0 W/m2 CLR
05:31 5.0 °F 2.5 °F 1020.2 in Calm     84 % 0.0 in 0.0 W/m2 CLR
05:36 5.0 °F 2.5 °F 1020.2 in Calm     84 % 0.0 in 0.0 W/m2 CLR
05:41 5.0 °F 2.7 °F 1020.2 in Calm     85 % 0.0 in 0.0 W/m2 CLR
05:46 5.0 °F 2.7 °F 1019.9 in Calm     85 % 0.0 in 0.0 W/m2 CLR
05:51 5.6 °F 3.1 °F 1019.9 in Calm     84 % 0.0 in 0.0 W/m2 CLR
05:56 5.0 °F 2.7 °F 1020.2 in Calm     85 % 0.0 in 0.0 W/m2 CLR
06:01 5.6 °F 3.4 °F 1019.9 in Calm     86 % 0.0 in 0.0 W/m2 CLR
06:06 5.6 °F 3.6 °F 1019.9 in Calm     87 % 0.0 in 0.0 W/m2 CLR
06:11 5.6 °F 3.2 °F 1020.2 in Calm     85 % 0.0 in 0.0 W/m2 CLR
06:16 5.6 °F 3.2 °F 1019.9 in Calm     85 % 0.0 in 0.0 W/m2 CLR
06:21 5.0 °F 2.7 °F 1019.9 in Calm     85 % 0.0 in 0.0 W/m2 CLR
06:26 5.0 °F 2.7 °F 1019.9 in Calm     85 % 0.0 in 0.0 W/m2 CLR
06:31 5.6 °F 3.2 °F 1019.9 in Calm     85 % 0.0 in 0.0 W/m2 CLR
06:36 5.6 °F 3.6 °F 1019.9 in Calm     87 % 0.0 in 0.0 W/m2 CLR
06:41 5.6 °F 3.6 °F 1019.9 in Calm     87 % 0.0 in 0.0 W/m2 CLR
06:46 5.0 °F 3.0 °F 1019.9 in Calm     87 % 0.0 in 0.0 W/m2 CLR
06:51 5.6 °F 3.6 °F 1019.9 in Calm     87 % 0.0 in 0.0 W/m2 CLR
06:56 5.6 °F 3.4 °F 1019.9 in Calm     86 % 0.0 in 0.0 W/m2 CLR
07:01 5.6 °F 3.6 °F 1019.9 in Calm     87 % 0.0 in 0.0 W/m2 CLR
07:06 5.0 °F 3.0 °F 1019.9 in Calm     87 % 0.0 in 0.0 W/m2 CLR
07:11 5.0 °F 3.0 °F 1019.9 in Calm     87 % 0.0 in 0.0 W/m2 CLR
07:16 5.0 °F 3.0 °F 1019.9 in Calm     87 % 0.0 in 0.0 W/m2 CLR
07:21 5.0 °F 3.0 °F 1019.9 in Calm     87 % 0.0 in 0.0 W/m2 CLR
07:26 5.0 °F 2.8 °F 1020.2 in Calm     86 % 0.0 in 0.0 W/m2 CLR
07:31 5.0 °F 3.0 °F 1020.2 in Calm     87 % 0.0 in 0.0 W/m2 CLR
07:36 5.0 °F 3.0 °F 1020.2 in Calm     87 % 0.0 in 0.0 W/m2 OVC
07:41 5.0 °F 3.0 °F 1020.2 in Calm     87 % 0.0 in 0.0 W/m2 OVC
07:46 5.0 °F 3.0 °F 1020.2 in Calm     87 % 0.0 in 5.0 W/m2 OVC
07:51 5.0 °F 3.0 °F 1020.2 in Calm     87 % 0.0 in 7.0 W/m2 BKN
07:57 5.0 °F 3.2 °F 1020.2 in Calm     88 % 0.0 in 11.0 W/m2 BKN
08:02 5.0 °F 3.2 °F 1020.2 in Calm     88 % 0.0 in 14.0 W/m2 BKN
08:07 5.0 °F 3.2 °F 1020.5 in Calm     88 % 0.0 in 19.0 W/m2 BKN
08:12 5.6 °F 3.7 °F 1020.5 in Calm     88 % 0.0 in 23.0 W/m2 BKN
08:17 5.6 °F 3.7 °F 1020.5 in Calm     88 % 0.0 in 25.0 W/m2 BKN
08:22 5.6 °F 3.7 °F 1020.5 in Calm     88 % 0.0 in 30.0 W/m2 BKN
08:27 5.6 °F 3.7 °F 1020.5 in Calm     88 % 0.0 in 39.0 W/m2 BKN
08:32 6.7 °F 4.8 °F 1020.5 in Calm     88 % 0.0 in 58.0 W/m2 SCT
08:37 6.7 °F 4.7 °F 1020.5 in Calm     87 % 0.0 in 74.0 W/m2 FEW
08:42 6.7 °F 4.7 °F 1020.5 in Calm     87 % 0.0 in 77.0 W/m2 FEW
08:47 7.2 °F 5.2 °F 1020.5 in Calm     87 % 0.0 in 102.0 W/m2 CLR
08:52 7.2 °F 5.1 °F 1020.5 in Calm     86 % 0.0 in 97.0 W/m2 CLR
08:57 7.8 °F 5.6 °F 1020.5 in Calm     86 % 0.0 in 132.0 W/m2 CLR
09:02 7.8 °F 5.2 °F 1020.2 in Calm     84 % 0.0 in 149.0 W/m2 CLR
09:07 8.3 °F 5.6 °F 1020.5 in Calm     83 % 0.0 in 171.0 W/m2 CLR
09:12 8.9 °F 6.0 °F 1020.5 in Calm     82 % 0.0 in 190.0 W/m2 CLR
09:17 9.4 °F 6.3 °F 1020.5 in Calm     81 % 0.0 in 207.0 W/m2 CLR
09:22 9.4 °F 6.3 °F 1020.5 in Calm     81 % 0.0 in 223.0 W/m2 CLR
09:27 10.0 °F 6.7 °F 1020.5 in Calm     80 % 0.0 in 213.0 W/m2 CLR
09:32 10.6 °F 6.9 °F 1020.5 in Calm     78 % 0.0 in 258.0 W/m2 CLR
09:37 11.1 °F 7.1 °F 1020.5 in Calm     76 % 0.0 in 271.0 W/m2 CLR
09:42 11.1 °F 6.8 °F 1020.5 in Calm     75 % 0.0 in 276.0 W/m2 CLR
09:47 11.7 °F 7.4 °F 1020.5 in Calm     75 % 0.0 in 281.0 W/m2 CLR
09:52 11.7 °F 7.4 °F 1020.5 in Calm     75 % 0.0 in 309.0 W/m2 CLR
09:57 12.8 °F 8.3 °F 1020.5 in Calm     74 % 0.0 in 325.0 W/m2 CLR
10:02 13.3 °F 8.4 °F 1020.5 in Calm     72 % 0.0 in 338.0 W/m2 CLR
10:07 13.3 °F 8.2 °F 1020.9 in Calm     71 % 0.0 in 360.0 W/m2 CLR
10:12 13.9 °F 8.5 °F 1020.5 in Calm     70 % 0.0 in 374.0 W/m2 CLR
10:17 14.4 °F 8.6 °F 1020.9 in Calm     68 % 0.0 in 390.0 W/m2 CLR
10:22 14.4 °F 8.4 °F 1020.5 in Calm     67 % 0.0 in 404.0 W/m2 CLR
10:27 15.0 °F 8.2 °F 1020.5 in Calm     64 % 0.0 in 417.0 W/m2 CLR
10:32 15.6 °F 8.6 °F 1020.5 in Calm     63 % 0.0 in 432.0 W/m2 CLR
10:33 15.6 °F 8.3 °F 1020.5 in Calm     62 % 0.0 in 436.0 W/m2 CLR
10:38 16.1 °F 8.6 °F 1020.5 in Calm     61 % 0.0 in 448.0 W/m2 CLR
10:43 16.1 °F 8.8 °F 1020.5 in Calm     62 % 0.0 in 454.0 W/m2 CLR
10:48 16.7 °F 9.8 °F 1020.5 in Calm     64 % 0.0 in 469.0 W/m2 CLR
10:53 16.7 °F 10.3 °F 1020.5 in Calm     66 % 0.0 in 482.0 W/m2 CLR
10:58 17.2 °F 10.3 °F 1020.5 in North 3.2 mph 3.2 mph 64 % 0.0 in 510.0 W/m2 CLR
11:03 17.2 °F 9.6 °F 1020.5 in NNW 3.7 mph 3.7 mph 61 % 0.0 in 520.0 W/m2 CLR
11:08 17.8 °F 10.2 °F 1020.5 in NNE 5.6 mph 5.6 mph 61 % 0.0 in 531.0 W/m2 CLR
11:13 18.3 °F 10.7 °F 1020.5 in NNW 5.6 mph 5.6 mph 61 % 0.0 in 543.0 W/m2 CLR
11:18 18.3 °F 9.9 °F 1020.5 in North 3.7 mph 3.7 mph 58 % 0.0 in 552.0 W/m2 CLR
11:23 18.3 °F 10.2 °F 1020.5 in NNW 3.7 mph 3.7 mph 59 % 0.0 in 564.0 W/m2 CLR
11:28 18.9 °F 10.7 °F 1020.5 in NNE 4.8 mph 4.8 mph 59 % 0.0 in 573.0 W/m2 CLR
11:33 18.9 °F 10.4 °F 1020.5 in NW 5.6 mph 5.6 mph 58 % 0.0 in 578.0 W/m2 CLR
11:38 18.9 °F 10.7 °F 1020.5 in Calm   0.3 mph 59 % 0.0 in 598.0 W/m2 CLR
11:48 19.4 °F 11.2 °F 1020.2 in NNE 6.4 mph 6.4 mph 59 % 0.0 in 617.0 W/m2 CLR
11:53 20.0 °F 11.5 °F 1020.2 in NNW 3.7 mph 3.7 mph 58 % 0.0 in 628.0 W/m2 CLR
11:58 20.0 °F 11.5 °F 1020.2 in NNE 4.8 mph 4.8 mph 58 % 0.0 in 636.0 W/m2 CLR
12:03 20.0 °F 11.5 °F 1020.2 in North 5.6 mph 5.6 mph 58 % 0.0 in 645.0 W/m2 CLR
12:08 20.6 °F 12.0 °F 1020.2 in NNW 4.8 mph 4.8 mph 58 % 0.0 in 657.0 W/m2 CLR
12:13 20.6 °F 12.3 °F 1020.2 in WNW 5.6 mph 5.6 mph 59 % 0.0 in 664.0 W/m2 CLR
12:18 20.6 °F 12.3 °F 1019.9 in NW 7.4 mph 7.4 mph 59 % 0.0 in 673.0 W/m2 CLR
12:23 20.6 °F 12.5 °F 1019.9 in Calm     60 % 0.0 in 682.0 W/m2 CLR
12:28 21.1 °F 13.1 °F 1019.9 in NW 5.6 mph 5.6 mph 60 % 0.0 in 691.0 W/m2 CLR
12:33 21.7 °F 13.6 °F 1019.9 in NNE 5.6 mph 5.6 mph 60 % 0.0 in 700.0 W/m2 CLR
12:38 21.7 °F 13.3 °F 1019.9 in NNW 9.3 mph 9.3 mph 59 % 0.0 in 708.0 W/m2 CLR
12:43 22.2 °F 14.1 °F 1019.9 in NNW 5.6 mph 5.6 mph 60 % 0.0 in 710.0 W/m2 CLR
12:48 22.2 °F 14.1 °F 1019.5 in NW 5.6 mph 5.6 mph 60 % 0.0 in 724.0 W/m2 CLR
12:58 22.8 °F 14.6 °F 1019.5 in NW 6.4 mph 6.4 mph 60 % 0.0 in 751.0 W/m2 CLR
13:03 22.8 °F 14.9 °F 1019.5 in Calm     61 % 0.0 in 752.0 W/m2 CLR
13:08 23.3 °F 15.1 °F 1019.2 in Calm     60 % 0.0 in 752.0 W/m2 CLR
13:13 23.3 °F 14.9 °F 1019.2 in NW 6.4 mph 6.4 mph 59 % 0.0 in 737.0 W/m2 CLR
13:18 23.3 °F 15.1 °F 1019.2 in WNW 1.9 mph 1.9 mph 60 % 0.0 in 714.0 W/m2 CLR
13:23 23.3 °F 14.9 °F 1019.2 in Calm     59 % 0.0 in 717.0 W/m2 CLR
13:28 23.3 °F 14.3 °F 1019.2 in NNW 9.3 mph 9.3 mph 57 % 0.0 in 751.0 W/m2 CLR
13:33 23.9 °F 15.1 °F 1019.2 in NW 5.6 mph 5.6 mph 58 % 0.0 in 770.0 W/m2 CLR
13:38 23.9 °F 14.8 °F 1018.8 in NW 6.4 mph 6.4 mph 57 % 0.0 in 766.0 W/m2 CLR
13:43 23.9 °F 14.8 °F 1018.8 in NNW 9.3 mph 9.3 mph 57 % 0.0 in 770.0 W/m2 CLR
13:48 24.4 °F 15.1 °F 1018.8 in NW 16.7 mph 16.7 mph 56 % 0.0 in 756.0 W/m2 CLR
13:53 24.4 °F 15.1 °F 1018.5 in NW 5.6 mph 5.6 mph 56 % 0.0 in 710.0 W/m2 CLR
13:58 24.4 °F 14.8 °F 1018.5 in NW 4.8 mph 4.8 mph 55 % 0.0 in 763.0 W/m2 CLR
14:03 25.0 °F 15.3 °F 1018.5 in West 9.3 mph 9.3 mph 55 % 0.0 in 768.0 W/m2 CLR
14:08 25.6 °F 15.8 °F 1018.5 in NW 6.4 mph 6.4 mph 55 % 0.0 in 766.0 W/m2 CLR
14:13 25.6 °F 15.6 °F 1018.5 in NW 13.0 mph 13.0 mph 54 % 0.0 in 765.0 W/m2 CLR
14:18 25.6 °F 15.3 °F 1018.2 in WNW 11.1 mph 11.1 mph 53 % 0.0 in 763.0 W/m2 CLR
14:23 25.6 °F 14.7 °F 1018.2 in NNW 5.6 mph 5.6 mph 51 % 0.0 in 766.0 W/m2 CLR
14:28 26.1 °F 15.5 °F 1018.2 in NNW 14.8 mph 14.8 mph 52 % 0.0 in 765.0 W/m2 CLR
14:33 26.1 °F 15.2 °F 1018.2 in Calm     51 % 0.0 in 766.0 W/m2 CLR
14:38 26.7 °F 15.1 °F 1017.8 in NW 18.5 mph 18.5 mph 49 % 0.0 in 754.0 W/m2 CLR
14:43 26.7 °F 14.7 °F 1017.8 in North 7.4 mph 7.6 mph 48 % 0.0 in 758.0 W/m2 CLR
14:48 26.7 °F 14.4 °F 1017.8 in West 13.0 mph 13.0 mph 47 % 0.0 in 761.0 W/m2 CLR
14:53 26.7 °F 13.7 °F 1017.8 in NW 14.8 mph 14.8 mph 45 % 0.0 in 759.0 W/m2 CLR
14:58 27.2 °F 13.9 °F 1017.8 in NW 16.7 mph 16.7 mph 44 % 0.0 in 719.0 W/m2 CLR
15:03 27.2 °F 13.6 °F 1017.8 in NW 7.4 mph 7.4 mph 43 % 0.0 in 661.0 W/m2 CLR
15:08 27.2 °F 13.9 °F 1017.8 in Calm   0.3 mph 44 % 0.0 in 689.0 W/m2 CLR
15:13 27.2 °F 13.9 °F 1017.8 in NW 9.3 mph 9.3 mph 44 % 0.0 in 649.0 W/m2 CLR
15:18 27.2 °F 14.3 °F 1017.8 in Calm     45 % 0.0 in 679.0 W/m2 CLR
15:23 27.8 °F 14.8 °F 1017.5 in Calm     45 % 0.0 in 761.0 W/m2 CLR
15:28 27.8 °F 15.1 °F 1017.5 in West 7.4 mph 7.4 mph 46 % 0.0 in 782.0 W/m2 CLR
15:34 28.3 °F 15.6 °F 1017.5 in NW 20.4 mph 20.4 mph 46 % 0.0 in 779.0 W/m2 CLR
15:39 27.8 °F 15.1 °F 1017.5 in NW 14.8 mph 14.8 mph 46 % 0.0 in 742.0 W/m2 CLR
15:44 28.3 °F 15.9 °F 1017.5 in NE 14.8 mph 14.8 mph 47 % 0.0 in 712.0 W/m2 CLR
15:49 27.8 °F 15.4 °F 1017.5 in NNE 14.8 mph 14.8 mph 47 % 0.0 in 647.0 W/m2 CLR
15:54 27.8 °F 15.4 °F 1017.2 in NNE 14.8 mph 14.8 mph 47 % 0.0 in 729.0 W/m2 CLR
15:59 27.8 °F 15.4 °F 1017.2 in North 8.0 mph 8.0 mph 47 % 0.0 in 712.0 W/m2 CLR
16:09 27.2 °F 14.6 °F 1017.2 in NE 14.8 mph 14.8 mph 46 % 0.0 in 397.0 W/m2 CLR
16:14 27.2 °F 14.6 °F 1017.2 in NNE 14.8 mph 14.8 mph 46 % 0.0 in 519.0 W/m2 CLR
16:19 27.2 °F 14.9 °F 1017.2 in NE 17.7 mph 17.7 mph 47 % 0.0 in 285.0 W/m2 CLR
16:24 26.7 °F 14.7 °F 1017.2 in NNE 16.7 mph 16.7 mph 48 % 0.0 in 339.0 W/m2 CLR
16:29 26.7 °F 15.1 °F 1017.2 in NE 11.1 mph 11.1 mph 49 % 0.0 in 536.0 W/m2 CLR
16:34 27.2 °F 14.9 °F 1017.2 in NE 5.6 mph 5.6 mph 47 % 0.0 in 510.0 W/m2 CLR
16:39 27.2 °F 14.9 °F 1017.2 in NE 14.8 mph 14.8 mph 47 % 0.0 in 482.0 W/m2 CLR
16:44 27.8 °F 15.4 °F 1016.8 in NNE 11.1 mph 11.1 mph 47 % 0.0 in 573.0 W/m2 CLR
16:49 27.8 °F 15.4 °F 1016.8 in North 9.7 mph 9.7 mph 47 % 0.0 in 585.0 W/m2 CLR
16:54 27.8 °F 15.1 °F 1016.8 in NNE 14.8 mph 14.8 mph 46 % 0.0 in 543.0 W/m2 CLR
16:59 27.8 °F 14.8 °F 1016.8 in North 5.6 mph 5.6 mph 45 % 0.0 in 380.0 W/m2 CLR
17:04 27.2 °F 14.6 °F 1016.8 in ENE 18.5 mph 18.5 mph 46 % 0.0 in 332.0 W/m2 CLR
17:09 27.2 °F 14.6 °F 1016.8 in NNE 9.3 mph 9.3 mph 46 % 0.0 in 432.0 W/m2 CLR
17:14 27.2 °F 15.3 °F 1016.8 in North 16.7 mph 16.7 mph 48 % 0.0 in 287.0 W/m2 CLR
17:19 26.7 °F 14.7 °F 1016.8 in North 18.5 mph 18.5 mph 48 % 0.0 in 476.0 W/m2 CLR
17:24 27.2 °F 15.6 °F 1016.8 in NNE 16.7 mph 16.7 mph 49 % 0.0 in 450.0 W/m2 CLR
17:29 27.2 °F 15.6 °F 1016.8 in NNE 14.5 mph 14.5 mph 49 % 0.0 in 367.0 W/m2 CLR
17:34 27.2 °F 15.6 °F 1016.8 in NNE 16.1 mph 16.1 mph 49 % 0.0 in 431.0 W/m2 CLR
17:39 27.2 °F 15.6 °F 1016.8 in NNE 18.5 mph 18.5 mph 49 % 0.0 in 401.0 W/m2 CLR
17:44 27.2 °F 15.9 °F 1016.8 in ENE 14.8 mph 14.8 mph 50 % 0.0 in 339.0 W/m2 CLR
17:49 27.2 °F 15.9 °F 1016.8 in ENE 16.1 mph 16.1 mph 50 % 0.0 in 336.0 W/m2 CLR
17:54 27.2 °F 16.2 °F 1016.8 in NE 9.7 mph 9.7 mph 51 % 0.0 in 241.0 W/m2 CLR
17:59 26.1 °F 15.5 °F 1016.8 in NNE 16.7 mph 16.7 mph 52 % 0.0 in 262.0 W/m2 CLR
18:04 26.1 °F 15.8 °F 1016.8 in NE 18.5 mph 18.5 mph 53 % 0.0 in 179.0 W/m2 CLR
18:09 25.6 °F 15.6 °F 1016.8 in NE 14.8 mph 14.8 mph 54 % 0.0 in 135.0 W/m2 CLR
18:14 25.6 °F 15.8 °F 1017.2 in NNE 18.5 mph 18.5 mph 55 % 0.0 in 142.0 W/m2 CLR
18:15 25.6 °F 15.8 °F 1017.2 in NE 16.7 mph 16.7 mph 55 % 0.0 in 130.0 W/m2 CLR
18:20 25.0 °F 15.6 °F 1017.2 in NE 16.7 mph 16.7 mph 56 % 0.0 in 206.0 W/m2 CLR
18:25 25.6 °F 16.1 °F 1017.2 in NE 18.5 mph 18.5 mph 56 % 0.0 in 244.0 W/m2 CLR
18:30 25.6 °F 16.1 °F 1017.2 in NNE 18.5 mph 18.5 mph 56 % 0.0 in 234.0 W/m2 CLR
18:35 25.6 °F 16.1 °F 1017.2 in NE 16.7 mph 16.7 mph 56 % 0.0 in 223.0 W/m2 CLR
18:40 25.6 °F 16.1 °F 1017.2 in NE 14.8 mph 14.8 mph 56 % 0.0 in 199.0 W/m2 CLR
18:45 25.6 °F 16.1 °F 1017.2 in NE 18.5 mph 18.5 mph 56 % 0.0 in 162.0 W/m2 CLR
18:50 25.6 °F 16.4 °F 1017.2 in ENE 18.5 mph 18.5 mph 57 % 0.0 in 156.0 W/m2 CLR
18:55 25.6 °F 16.4 °F 1017.2 in NE 16.7 mph 16.7 mph 57 % 0.0 in 139.0 W/m2 CLR
19:00 25.0 °F 15.9 °F 1017.2 in ENE 13.0 mph 13.0 mph 57 % 0.0 in 114.0 W/m2 CLR
19:05 25.0 °F 15.9 °F 1017.2 in ENE 16.7 mph 16.7 mph 57 % 0.0 in 97.0 W/m2 CLR
19:10 24.4 °F 15.4 °F 1017.2 in ENE 18.5 mph 18.5 mph 57 % 0.0 in 81.0 W/m2 FEW
19:15 24.4 °F 15.7 °F 1017.2 in NE 20.4 mph 20.4 mph 58 % 0.0 in 63.0 W/m2 SCT
19:20 24.4 °F 15.7 °F 1017.2 in ENE 20.4 mph 20.4 mph 58 % 0.0 in 54.0 W/m2 SCT
19:25 23.9 °F 15.4 °F 1017.2 in NE 20.4 mph 20.4 mph 59 % 0.0 in 44.0 W/m2 SCT
19:30 23.9 °F 15.7 °F 1017.2 in NE 13.0 mph 13.0 mph 60 % 0.0 in 37.0 W/m2 BKN
19:35 23.3 °F 15.1 °F 1017.2 in NE 6.4 mph 6.4 mph 60 % 0.0 in 30.0 W/m2 BKN
19:40 23.3 °F 15.4 °F 1017.2 in ENE 14.5 mph 14.5 mph 61 % 0.0 in 23.0 W/m2 BKN
19:45 22.8 °F 15.1 °F 1017.5 in ENE 14.8 mph 14.8 mph 62 % 0.0 in 18.0 W/m2 BKN
19:50 22.8 °F 15.1 °F 1017.5 in ENE 13.0 mph 13.0 mph 62 % 0.0 in 14.0 W/m2 BKN
19:55 22.8 °F 15.1 °F 1017.5 in ENE 14.8 mph 14.8 mph 62 % 0.0 in 7.0 W/m2 BKN
20:00 22.2 °F 14.8 °F 1017.5 in NE 8.0 mph 8.0 mph 63 % 0.0 in 0.0 W/m2 CLR
20:05 22.2 °F 15.1 °F 1017.5 in NNE 14.8 mph 14.8 mph 64 % 0.0 in 0.0 W/m2 CLR
20:10 21.7 °F 14.8 °F 1017.5 in NE 9.3 mph 9.3 mph 65 % 0.0 in 0.0 W/m2 CLR
20:15 21.7 °F 14.8 °F 1017.5 in NE 7.4 mph 7.4 mph 65 % 0.0 in 0.0 W/m2 CLR
20:20 21.1 °F 14.3 °F 1017.8 in Calm     65 % 0.0 in 0.0 W/m2 CLR
20:25 20.6 °F 14.0 °F 1017.8 in Calm     66 % 0.0 in 0.0 W/m2 CLR
20:30 20.6 °F 14.0 °F 1017.8 in Calm     66 % 0.0 in 0.0 W/m2 CLR
20:35 20.0 °F 13.7 °F 1017.8 in Calm     67 % 0.0 in 0.0 W/m2 CLR
20:40 19.4 °F 13.2 °F 1017.8 in Calm     67 % 0.0 in 0.0 W/m2 CLR
20:45 19.4 °F 13.4 °F 1017.8 in Calm     68 % 0.0 in 0.0 W/m2 CLR
20:50 18.9 °F 12.8 °F 1018.2 in Calm     68 % 0.0 in 0.0 W/m2 CLR
20:55 18.9 °F 12.8 °F 1017.8 in Calm     68 % 0.0 in 0.0 W/m2 CLR
21:00 18.3 °F 12.6 °F 1018.2 in Calm     69 % 0.0 in 0.0 W/m2 CLR
21:05 18.3 °F 12.6 °F 1018.2 in Calm     69 % 0.0 in 0.0 W/m2 CLR
21:10 17.8 °F 12.0 °F 1018.2 in ENE 5.6 mph 5.6 mph 69 % 0.0 in 0.0 W/m2 CLR
21:15 17.2 °F 11.5 °F 1018.2 in Calm     69 % 0.0 in 0.0 W/m2 CLR
21:20 17.2 °F 11.7 °F 1018.2 in Calm     70 % 0.0 in 0.0 W/m2 CLR
21:25 16.7 °F 11.2 °F 1018.2 in Calm     70 % 0.0 in 0.0 W/m2 CLR
21:30 16.7 °F 11.4 °F 1018.2 in Calm     71 % 0.0 in 0.0 W/m2 CLR
21:35 16.1 °F 11.1 °F 1018.2 in Calm     72 % 0.0 in 0.0 W/m2 CLR
21:40 16.1 °F 11.1 °F 1018.5 in NE 5.6 mph 5.6 mph 72 % 0.0 in 0.0 W/m2 CLR
21:45 16.1 °F 11.1 °F 1018.5 in NE 5.6 mph 5.6 mph 72 % 0.0 in 0.0 W/m2 CLR
21:50 16.1 °F 11.3 °F 1018.5 in Calm     73 % 0.0 in 0.0 W/m2 CLR
21:55 16.1 °F 11.3 °F 1018.5 in Calm     73 % 0.0 in 0.0 W/m2 CLR
22:00 16.1 °F 11.3 °F 1018.5 in Calm     73 % 0.0 in 0.0 W/m2 CLR
22:05 16.1 °F 11.5 °F 1018.5 in Calm     74 % 0.0 in 0.0 W/m2 CLR
22:10 15.6 °F 10.9 °F 1018.5 in Calm     74 % 0.0 in 0.0 W/m2 CLR
22:15 15.6 °F 10.9 °F 1018.5 in Calm     74 % 0.0 in 0.0 W/m2 CLR
22:20 15.6 °F 11.2 °F 1018.5 in Calm     75 % 0.0 in 0.0 W/m2 CLR
22:21 15.6 °F 10.9 °F 1018.5 in Calm     74 % 0.0 in 0.0 W/m2 CLR
22:26 15.0 °F 10.4 °F 1018.5 in Calm     74 % 0.0 in 0.0 W/m2 CLR
22:31 15.0 °F 10.6 °F 1018.5 in Calm     75 % 0.0 in 0.0 W/m2 CLR
22:36 15.0 °F 10.8 °F 1018.8 in Calm     76 % 0.0 in 0.0 W/m2 CLR
22:41 15.0 °F 10.8 °F 1018.5 in Calm     76 % 0.0 in 0.0 W/m2 CLR
22:46 15.0 °F 10.8 °F 1018.5 in Calm     76 % 0.0 in 0.0 W/m2 CLR
22:51 15.0 °F 11.0 °F 1018.8 in ENE 5.6 mph 5.6 mph 77 % 0.0 in 0.0 W/m2 CLR
22:56 15.0 °F 11.0 °F 1018.8 in Calm     77 % 0.0 in 0.0 W/m2 CLR
23:01 15.0 °F 11.0 °F 1018.8 in Calm     77 % 0.0 in 0.0 W/m2 CLR
23:06 15.0 °F 11.0 °F 1018.8 in Calm     77 % 0.0 in 0.0 W/m2 CLR
23:11 15.0 °F 11.0 °F 1018.8 in Calm     77 % 0.0 in 0.0 W/m2 CLR
23:16 15.0 °F 11.0 °F 1018.8 in Calm     77 % 0.0 in 0.0 W/m2 CLR
23:21 15.0 °F 11.4 °F 1018.8 in Calm     79 % 0.0 in 0.0 W/m2 CLR
23:26 15.0 °F 11.2 °F 1018.8 in Calm     78 % 0.0 in 0.0 W/m2 CLR
23:31 15.0 °F 11.4 °F 1018.8 in Calm     79 % 0.0 in 0.0 W/m2 CLR
23:36 15.0 °F 11.4 °F 1018.8 in Calm     79 % 0.0 in 0.0 W/m2 CLR
23:38 15.0 °F 11.4 °F 1018.8 in Calm     79 % 0.0 in 0.0 W/m2 CLR
23:43 15.0 °F 11.4 °F 1018.8 in Calm     79 % 0.0 in 0.0 W/m2 CLR
23:48 15.0 °F 11.4 °F 1018.8 in Calm     79 % 0.0 in 0.0 W/m2 CLR
23:53 15.0 °F 11.4 °F 1019.2 in Calm     79 % 0.0 in 0.0 W/m2 CLR
23:58 15.0 °F 11.6 °F 1019.2 in Calm     80 % 0.0 in 0.0 W/m2 CLR
Lo Temps de Massalio
Compliments of Weather Underground - 1.25 mb